Time;durP1;ratioP1;P1;durP2;ratioP2;P2;SDS_P1;SDS_P2;PMS_P1;PMS_P2;Temp;Humidity;BMP_temperature;BMP_pressure;BME280_temperature;BME280_humidity;BME280_pressure;Samples;Min_cycle;Max_cycle;Signal;HPM_P1;HPM_P2
2021/03/04 00:00:01;;;;;;;15.97;8.63;;;;;;;11.80;38.67;97307.00;5079358;28;20453;-66
2021/03/04 00:02:26;;;;;;;12.80;8.57;;;;;;;11.79;38.07;97304.50;5088026;28;20428;-67
2021/03/04 00:04:52;;;;;;;24.33;8.83;;;;;;;11.80;37.76;97301.75;5082816;28;20486;-67
2021/03/04 00:07:18;;;;;;;15.73;7.67;;;;;;;11.63;37.92;97307.88;5074959;28;20583;-65
2021/03/04 00:09:43;;;;;;;13.00;7.70;;;;;;;11.60;37.78;97305.56;5072802;28;20319;-64
2021/03/04 00:12:09;;;;;;;18.07;8.43;;;;;;;11.61;37.56;97297.56;5072708;28;20198;-66
2021/03/04 00:14:35;;;;;;;14.67;7.60;;;;;;;11.78;37.33;97302.88;5071732;28;20187;-64
2021/03/04 00:17:00;;;;;;;13.17;7.50;;;;;;;11.76;37.35;97300.41;5072114;28;20784;-65
2021/03/04 00:19:26;;;;;;;12.10;7.60;;;;;;;11.72;37.44;97295.63;5073550;28;20551;-67
2021/03/04 00:21:52;;;;;;;18.27;7.87;;;;;;;11.76;37.20;97294.34;5072093;28;20232;-65
2021/03/04 00:24:17;;;;;;;12.93;7.47;;;;;;;11.94;36.83;97281.13;5068228;28;20186;-66
2021/03/04 00:26:43;;;;;;;16.17;8.20;;;;;;;11.97;36.95;97286.06;5063348;28;20623;-66
2021/03/04 00:29:12;;;;;;;12.17;7.40;;;;;;;11.97;37.41;97280.81;5056855;28;20210;-65
2021/03/04 00:31:38;;;;;;;15.97;8.40;;;;;;;11.96;37.82;97281.78;5071925;28;20474;-66
2021/03/04 00:34:04;;;;;;;17.13;8.33;;;;;;;11.95;37.69;97285.41;5073222;28;20421;-65
2021/03/04 00:36:29;;;;;;;14.33;7.80;;;;;;;11.92;37.65;97293.59;5071418;28;20243;-65
2021/03/04 00:38:55;;;;;;;18.53;8.80;;;;;;;11.65;37.53;97292.81;5054788;28;20553;-64
2021/03/04 00:41:20;;;;;;;19.03;8.00;;;;;;;11.71;37.44;97283.47;5067804;28;20214;-64
2021/03/04 00:43:46;;;;;;;17.30;7.90;;;;;;;11.77;37.70;97275.78;5068430;28;20197;-65
2021/03/04 00:46:18;;;;;;;17.00;7.63;;;;;;;11.44;37.79;97282.69;5073019;28;20174;-63
2021/03/04 00:48:43;;;;;;;13.30;7.90;;;;;;;11.22;38.20;97277.81;5070610;28;20301;-67
2021/03/04 00:51:09;;;;;;;15.67;8.50;;;;;;;11.55;37.86;97276.34;5072912;28;20436;-64
2021/03/04 00:53:35;;;;;;;14.20;7.33;;;;;;;11.76;37.33;97268.91;5073000;28;20255;-66
2021/03/04 00:56:00;;;;;;;15.60;7.90;;;;;;;11.62;37.79;97264.25;5066400;28;20190;-67
2021/03/04 00:58:26;;;;;;;12.30;7.13;;;;;;;11.72;37.86;97262.31;5066916;28;20202;-63
2021/03/04 01:00:52;;;;;;;22.83;8.80;;;;;;;11.74;37.72;97270.84;5073161;28;20190;-64
2021/03/04 01:03:17;;;;;;;12.57;7.40;;;;;;;11.77;38.00;97269.72;5072937;28;20185;-64
2021/03/04 01:05:43;;;;;;;13.60;7.40;;;;;;;11.78;37.61;97256.44;5071807;28;20421;-66
2021/03/04 01:08:09;;;;;;;17.70;8.13;;;;;;;11.74;37.83;97264.78;5056675;28;20218;-65
2021/03/04 01:10:37;;;;;;;12.07;7.30;;;;;;;11.75;37.81;97267.25;5074888;28;20212;-65
2021/03/04 01:13:03;;;;;;;12.57;7.47;;;;;;;11.74;37.97;97260.34;5075360;28;20202;-65
2021/03/04 01:15:29;;;;;;;14.10;8.30;;;;;;;11.75;37.95;97254.13;5073375;28;20448;-63
2021/03/04 01:17:55;;;;;;;14.23;8.33;;;;;;;11.73;37.98;97256.06;5072563;28;20245;-66
2021/03/04 01:20:21;;;;;;;11.47;7.47;;;;;;;11.70;37.72;97253.78;5072870;28;20456;-67
2021/03/04 01:22:47;;;;;;;13.17;8.20;;;;;;;11.70;37.79;97259.03;5073110;28;20278;-67
2021/03/04 01:25:13;;;;;;;13.73;8.40;;;;;;;11.66;37.95;97247.19;5075814;28;20676;-65
2021/03/04 01:27:39;;;;;;;14.57;7.83;;;;;;;11.69;37.74;97244.25;5069391;28;20293;-66
2021/03/04 01:30:07;;;;;;;12.07;8.00;;;;;;;11.67;38.08;97244.41;5076662;28;20458;-66
2021/03/04 01:32:33;;;;;;;12.00;7.23;;;;;;;11.63;38.10;97237.84;5073204;28;20646;-64
2021/03/04 01:34:59;;;;;;;10.57;6.90;;;;;;;11.61;38.13;97231.94;5070324;28;20519;-66
2021/03/04 01:37:24;;;;;;;11.40;7.40;;;;;;;11.61;37.95;97239.81;5072341;28;20954;-65
2021/03/04 01:39:50;;;;;;;10.60;7.33;;;;;;;11.61;38.06;97225.84;5072003;28;20247;-65
2021/03/04 01:42:15;;;;;;;13.87;7.80;;;;;;;11.58;37.98;97224.38;5070467;28;20174;-66
2021/03/04 01:44:41;;;;;;;23.73;7.17;;;;;;;11.53;38.11;97221.38;5071062;28;20194;-66
2021/03/04 01:47:07;;;;;;;15.33;7.43;;;;;;;11.53;38.06;97214.34;5066831;28;20626;-65
2021/03/04 01:49:33;;;;;;;13.87;7.37;;;;;;;11.44;38.15;97214.47;5071936;28;20273;-65
2021/03/04 01:51:59;;;;;;;12.13;7.90;;;;;;;11.45;38.47;97211.69;5071565;28;20206;-65
2021/03/04 01:54:25;;;;;;;16.47;7.70;;;;;;;11.29;38.11;97206.38;5070769;28;20432;-69
2021/03/04 01:56:51;;;;;;;14.53;8.03;;;;;;;11.47;38.04;97206.28;5061664;28;20449;-65
2021/03/04 01:59:16;;;;;;;12.90;7.80;;;;;;;11.17;38.33;97206.63;5054096;28;20417;-65
2021/03/04 02:01:42;;;;;;;17.37;7.50;;;;;;;11.37;38.09;97201.16;5071158;28;20256;-68
2021/03/04 02:04:08;;;;;;;13.43;7.43;;;;;;;11.45;37.76;97201.19;5070806;28;20200;-66
2021/03/04 02:07:09;;;;;;;14.27;7.53;;;;;;;11.39;38.28;97201.81;5070151;28;20194;-66
2021/03/04 02:09:36;;;;;;;15.60;7.70;;;;;;;11.36;38.29;97199.50;5050256;28;20200;-66
2021/03/04 02:12:07;;;;;;;13.57;7.93;;;;;;;11.40;38.23;97190.34;5070154;28;21311;-67
2021/03/04 02:14:37;;;;;;;12.70;8.40;;;;;;;11.25;38.56;97191.91;5045685;28;20515;-66
2021/03/04 02:17:06;;;;;;;14.87;8.23;;;;;;;11.21;38.83;97180.91;5071436;28;21585;-65
2021/03/04 02:19:51;;;;;;;14.77;7.60;;;;;;;11.33;38.53;97177.03;5070160;28;21004;-64
2021/03/04 02:22:23;;;;;;;12.10;7.20;;;;;;;11.38;38.58;97181.78;5055519;28;20447;-67
2021/03/04 02:25:11;;;;;;;14.43;7.97;;;;;;;11.37;38.56;97174.91;5058589;28;21147;-65
2021/03/04 02:27:37;;;;;;;12.60;7.40;;;;;;;11.31;38.83;97176.34;5061780;28;20540;-66
2021/03/04 02:30:06;;;;;;;16.20;8.50;;;;;;;11.24;39.05;97170.09;5069721;28;20463;-67
2021/03/04 02:32:33;;;;;;;10.87;7.47;;;;;;;11.30;38.88;97168.66;5069265;28;20460;-66
2021/03/04 02:35:13;;;;;;;13.40;7.80;;;;;;;11.28;38.98;97160.91;5060642;28;20417;-66
2021/03/04 02:37:44;;;;;;;14.33;8.20;;;;;;;11.26;38.84;97168.16;5071309;28;20447;-64
2021/03/04 02:40:11;;;;;;;14.90;7.77;;;;;;;11.20;38.78;97164.38;5054584;28;20766;-69
2021/03/04 02:42:39;;;;;;;14.67;8.17;;;;;;;11.25;38.58;97160.41;5062390;28;20420;-66
2021/03/04 02:45:06;;;;;;;13.00;7.83;;;;;;;11.19;39.28;97167.13;5070268;28;20427;-66
2021/03/04 02:47:32;;;;;;;21.67;9.23;;;;;;;11.01;39.52;97175.06;5071016;28;20432;-65
2021/03/04 02:49:58;;;;;;;12.20;7.17;;;;;;;10.99;39.08;97163.91;5069371;28;21163;-66
2021/03/04 02:52:24;;;;;;;16.40;8.40;;;;;;;11.26;38.32;97162.06;5070327;28;20289;-65
2021/03/04 02:54:50;;;;;;;21.80;8.00;;;;;;;11.09;38.50;97156.75;5036647;28;20531;-64
2021/03/04 02:57:18;;;;;;;14.07;7.63;;;;;;;10.93;38.40;97161.91;5060757;28;20321;-67
2021/03/04 02:59:44;;;;;;;16.70;7.97;;;;;;;10.76;39.05;97156.56;5053830;28;20424;-68
2021/03/04 03:02:11;;;;;;;15.90;7.50;;;;;;;10.95;38.77;97152.91;5050295;28;20511;-67
2021/03/04 03:04:38;;;;;;;13.17;7.53;;;;;;;11.18;38.21;97144.50;5065218;28;20516;-66
2021/03/04 03:07:07;;;;;;;13.70;8.10;;;;;;;10.90;38.57;97142.06;5068981;28;20474;-66
2021/03/04 03:09:33;;;;;;;12.13;6.80;;;;;;;11.02;38.54;97140.00;5070211;28;20440;-64
2021/03/04 03:11:59;;;;;;;11.03;7.57;;;;;;;11.26;38.17;97138.47;5076577;28;20460;-68
2021/03/04 03:14:26;;;;;;;13.30;7.43;;;;;;;11.24;37.95;97140.41;5085016;28;20196;-68
2021/03/04 03:16:51;;;;;;;13.37;7.47;;;;;;;11.27;38.01;97135.69;5074816;28;20448;-65
2021/03/04 03:19:17;;;;;;;15.77;7.60;;;;;;;11.24;37.84;97138.63;5071495;28;20425;-66
2021/03/04 03:21:43;;;;;;;14.13;7.73;;;;;;;11.34;37.70;97138.50;5074281;28;20198;-66
2021/03/04 03:24:09;;;;;;;16.20;7.73;;;;;;;11.33;37.65;97136.88;5069139;28;20182;-67
2021/03/04 03:26:36;;;;;;;14.40;8.17;;;;;;;11.44;37.71;97135.72;5066587;28;20186;-65
2021/03/04 03:29:03;;;;;;;13.40;7.23;;;;;;;11.47;37.57;97138.84;5072177;28;20452;-67
2021/03/04 03:31:28;;;;;;;13.43;7.20;;;;;;;11.46;37.60;97129.38;5074469;28;20520;-67
2021/03/04 03:33:55;;;;;;;16.27;7.90;;;;;;;11.42;37.44;97129.81;5073014;28;20563;-66
2021/03/04 03:36:21;;;;;;;11.57;7.63;;;;;;;11.51;37.33;97132.31;5071848;28;20193;-63
2021/03/04 03:38:48;;;;;;;13.13;8.57;;;;;;;11.42;37.85;97130.66;5070101;28;20440;-67
2021/03/04 03:41:13;;;;;;;17.17;9.10;;;;;;;11.10;38.59;97137.41;5051893;28;20430;-67
2021/03/04 03:43:40;;;;;;;17.07;8.00;;;;;;;11.25;38.60;97137.66;5069325;28;20432;-66
2021/03/04 03:46:07;;;;;;;11.90;7.80;;;;;;;11.00;38.89;97128.84;5070906;28;20186;-67
2021/03/04 03:48:33;;;;;;;13.37;8.20;;;;;;;10.87;39.60;97137.16;5072532;28;20445;-64
2021/03/04 03:50:58;;;;;;;12.50;8.30;;;;;;;10.65;40.02;97138.50;5073047;28;20428;-65
2021/03/04 03:53:26;;;;;;;14.77;8.30;;;;;;;10.88;39.31;97123.06;5072877;28;20460;-68
2021/03/04 03:55:53;;;;;;;15.97;7.80;;;;;;;10.95;39.23;97113.59;5072531;28;20285;-65
2021/03/04 03:58:24;;;;;;;21.53;8.40;;;;;;;11.00;39.56;97115.72;5067043;28;20440;-66
2021/03/04 04:00:54;;;;;;;13.73;8.13;;;;;;;11.06;39.12;97120.38;5072366;28;20429;-68
2021/03/04 04:03:19;;;;;;;14.40;8.07;;;;;;;11.22;38.70;97123.03;5073336;28;20429;-66
2021/03/04 04:05:45;;;;;;;13.30;8.10;;;;;;;11.27;38.70;97116.50;5070215;28;20428;-68
2021/03/04 04:08:11;;;;;;;11.63;7.23;;;;;;;11.19;38.72;97107.63;5066639;28;20256;-69
2021/03/04 04:10:38;;;;;;;13.37;8.50;;;;;;;11.14;38.84;97109.09;5042252;28;20186;-65
2021/03/04 04:13:04;;;;;;;13.77;7.83;;;;;;;11.18;38.73;97107.75;5073070;28;20630;-68
2021/03/04 04:15:54;;;;;;;12.50;6.80;;;;;;;10.88;39.26;97115.19;5072730;28;20524;-67
2021/03/04 04:18:20;;;;;;;12.50;7.60;;;;;;;10.87;39.26;97100.44;5047463;28;20206;-67
2021/03/04 04:20:46;;;;;;;15.77;6.70;;;;;;;11.02;39.00;97103.28;5051538;28;20425;-67
2021/03/04 04:23:11;;;;;;;11.87;7.30;;;;;;;11.03;38.87;97099.69;5050860;28;20860;-70
2021/03/04 04:25:46;;;;;;;16.43;7.13;;;;;;;11.03;38.70;97099.69;5050967;28;20417;-67
2021/03/04 04:28:12;;;;;;;12.97;7.33;;;;;;;11.15;38.30;97095.00;5044389;28;20252;-68
2021/03/04 04:30:37;;;;;;;13.27;6.97;;;;;;;11.21;38.34;97097.78;5051741;28;20457;-67
2021/03/04 04:33:03;;;;;;;10.73;6.80;;;;;;;11.18;38.64;97098.13;5052086;28;20222;-65
2021/03/04 04:35:28;;;;;;;10.00;6.90;;;;;;;10.97;38.58;97106.38;5052299;28;20215;-65
2021/03/04 04:37:54;;;;;;;11.10;7.10;;;;;;;11.11;38.66;97098.91;5052641;28;20207;-65
2021/03/04 04:40:20;;;;;;;11.00;7.20;;;;;;;11.03;38.65;97095.25;5052886;28;20214;-67
2021/03/04 04:42:45;;;;;;;12.57;7.53;;;;;;;10.94;38.81;97088.34;5059623;28;20187;-67
2021/03/04 04:45:11;;;;;;;14.60;8.00;;;;;;;10.78;39.26;97090.88;5051572;28;20277;-69
2021/03/04 04:47:37;;;;;;;14.20;7.40;;;;;;;10.74;39.32;97085.97;5053776;28;20210;-63
2021/03/04 04:50:04;;;;;;;12.90;8.17;;;;;;;10.93;39.13;97083.25;5067756;28;20217;-66
2021/03/04 04:52:29;;;;;;;15.33;8.60;;;;;;;10.95;39.31;97076.88;5051425;28;20210;-67
2021/03/04 04:54:55;;;;;;;11.83;8.00;;;;;;;11.05;39.11;97076.75;5051231;28;20428;-67
2021/03/04 04:57:22;;;;;;;12.90;8.30;;;;;;;11.08;38.91;97076.44;5052474;28;20223;-67
2021/03/04 04:59:49;;;;;;;13.73;8.40;;;;;;;11.06;39.20;97084.44;5052265;28;20807;-67
2021/03/04 05:02:14;;;;;;;15.27;8.37;;;;;;;11.01;39.28;97070.16;5049899;28;20417;-65
2021/03/04 05:04:40;;;;;;;11.80;7.40;;;;;;;10.99;39.37;97066.88;5051945;28;20433;-68
2021/03/04 05:07:06;;;;;;;16.93;9.13;;;;;;;10.95;39.65;97065.56;5050869;28;20301;-66
2021/03/04 05:09:31;;;;;;;13.50;7.80;;;;;;;10.94;39.55;97069.19;5051300;28;20564;-66
2021/03/04 05:11:57;;;;;;;11.40;7.60;;;;;;;10.93;39.72;97062.28;5051453;28;20739;-66
2021/03/04 05:14:22;;;;;;;11.53;7.87;;;;;;;10.86;39.59;97060.28;5052023;28;20187;-68
2021/03/04 05:16:48;;;;;;;14.43;7.37;;;;;;;10.83;39.38;97055.38;5051208;28;20195;-65
2021/03/04 05:19:14;;;;;;;14.00;8.33;;;;;;;10.77;39.88;97063.03;5053493;28;20650;-65
2021/03/04 05:21:39;;;;;;;14.60;7.77;;;;;;;10.71;39.26;97056.63;5052325;28;20179;-66
2021/03/04 05:24:05;;;;;;;18.97;8.60;;;;;;;10.68;39.45;97047.25;5058930;28;20178;-65
2021/03/04 05:26:31;;;;;;;23.03;7.10;;;;;;;10.68;39.58;97049.88;5051435;28;20189;-65
2021/03/04 05:28:56;;;;;;;13.13;7.37;;;;;;;10.70;39.59;97052.38;5051515;28;20453;-65
2021/03/04 05:31:30;;;;;;;14.37;8.07;;;;;;;10.67;39.77;97052.66;5057267;28;20186;-66
2021/03/04 05:34:08;;;;;;;14.10;7.93;;;;;;;10.59;40.07;97046.41;5052088;28;20239;-66
2021/03/04 05:36:34;;;;;;;13.40;7.97;;;;;;;10.65;39.80;97042.31;5052096;28;20830;-67
2021/03/04 05:38:59;;;;;;;11.37;7.70;;;;;;;10.65;39.81;97034.47;5055638;28;20264;-67
2021/03/04 05:41:25;;;;;;;18.23;7.97;;;;;;;10.64;39.76;97037.25;5061724;28;20182;-65
2021/03/04 05:43:51;;;;;;;15.73;7.87;;;;;;;10.50;40.17;97041.28;5055045;28;20279;-66
2021/03/04 05:46:20;;;;;;;16.80;8.43;;;;;;;10.52;40.12;97028.84;5050920;28;20187;-65
2021/03/04 05:48:47;;;;;;;13.87;7.63;;;;;;;10.51;40.02;97032.44;5054795;28;20203;-67
2021/03/04 05:51:14;;;;;;;19.13;7.87;;;;;;;10.36;40.54;97027.75;5053879;28;20429;-67
2021/03/04 05:53:46;;;;;;;11.63;7.60;;;;;;;10.46;40.36;97027.66;5046330;28;20457;-66
2021/03/04 05:56:17;;;;;;;14.60;7.97;;;;;;;10.30;40.76;97026.56;5058055;28;20445;-66
2021/03/04 05:58:46;;;;;;;11.97;7.70;;;;;;;10.36;40.87;97024.28;5062414;28;20899;-67
2021/03/04 06:01:12;;;;;;;14.47;7.70;;;;;;;10.36;40.79;97025.13;5055318;28;20445;-67
2021/03/04 06:03:39;;;;;;;12.80;7.67;;;;;;;10.30;40.91;97021.34;5046720;28;20421;-64
2021/03/04 06:06:06;;;;;;;12.60;7.70;;;;;;;10.00;41.87;97033.09;5054990;28;20425;-65
2021/03/04 06:08:32;;;;;;;16.00;7.70;;;;;;;10.15;41.62;97030.72;5056866;28;20454;-66
2021/03/04 06:10:57;;;;;;;32.37;9.20;;;;;;;10.14;41.56;97029.91;5051278;28;20483;-66
2021/03/04 06:13:23;;;;;;;14.90;8.30;;;;;;;10.21;41.26;97029.28;5051642;28;20218;-66
2021/03/04 06:15:52;;;;;;;13.17;8.17;;;;;;;10.20;41.76;97020.63;5051141;28;20187;-67
2021/03/04 06:18:17;;;;;;;14.07;8.57;;;;;;;10.21;41.71;97018.81;5048449;28;20767;-64
2021/03/04 06:20:43;;;;;;;22.27;8.77;;;;;;;10.21;41.61;97021.44;5051336;28;20418;-65
2021/03/04 06:23:09;;;;;;;19.33;8.93;;;;;;;10.21;41.54;97017.00;5059806;28;20186;-65
2021/03/04 06:25:35;;;;;;;17.17;8.50;;;;;;;10.20;41.86;97022.41;5058761;28;20603;-70
2021/03/04 06:28:01;;;;;;;17.87;8.33;;;;;;;10.24;41.45;97014.09;5071832;28;20214;-68
2021/03/04 06:30:45;;;;;;;15.93;8.40;;;;;;;10.29;41.55;97024.94;5071716;28;20423;-66
2021/03/04 06:33:12;;;;;;;11.73;7.53;;;;;;;10.31;41.36;97019.53;5071217;28;20908;-66
2021/03/04 06:35:43;;;;;;;13.40;8.03;;;;;;;10.29;41.40;97022.31;5068067;28;20425;-66
2021/03/04 06:38:18;;;;;;;18.90;8.77;;;;;;;10.34;41.42;97016.59;5070675;28;20509;-65
2021/03/04 06:40:45;;;;;;;14.90;8.77;;;;;;;10.36;41.64;97019.91;5071282;28;20489;-65
2021/03/04 06:43:23;;;;;;;28.43;10.20;;;;;;;10.37;41.79;97020.72;5055152;28;20888;-65
2021/03/04 06:45:50;;;;;;;19.27;10.63;;;;;;;10.32;41.57;97015.13;5062168;28;20845;-65
2021/03/04 06:48:17;;;;;;;15.17;8.60;;;;;;;10.28;41.68;97018.03;5071062;28;20437;-66
2021/03/04 06:50:45;;;;;;;17.23;9.03;;;;;;;10.14;41.73;97008.94;5071307;28;20787;-66
2021/03/04 06:53:17;;;;;;;18.50;9.53;;;;;;;10.18;41.85;97019.13;5069792;28;20460;-66
2021/03/04 06:55:47;;;;;;;19.30;9.47;;;;;;;10.23;41.42;97009.81;5067328;28;20429;-66
2021/03/04 06:58:12;;;;;;;19.50;9.00;;;;;;;10.47;41.06;97018.81;5067104;28;20755;-67
2021/03/04 07:00:38;;;;;;;21.07;9.10;;;;;;;10.67;40.69;97010.72;5074666;28;20440;-66
2021/03/04 07:03:04;;;;;;;21.37;9.50;;;;;;;10.18;41.82;97014.72;5066571;28;20186;-66
2021/03/04 07:05:30;;;;;;;21.37;9.47;;;;;;;10.28;41.69;97015.44;5066737;28;20179;-65
2021/03/04 07:07:57;;;;;;;15.47;9.60;;;;;;;10.47;41.22;97023.25;5073866;28;20217;-64
2021/03/04 07:10:24;;;;;;;18.10;9.00;;;;;;;10.60;40.98;97021.84;5068652;28;20182;-67
2021/03/04 07:12:50;;;;;;;27.43;9.40;;;;;;;10.81;40.16;97017.16;5074166;28;20530;-65
2021/03/04 07:15:18;;;;;;;17.30;8.90;;;;;;;10.69;40.41;97014.84;5072655;28;20424;-67
2021/03/04 07:17:46;;;;;;;48.97;9.67;;;;;;;10.76;40.06;97012.41;5074453;28;20210;-68
2021/03/04 07:20:14;;;;;;;24.40;9.90;;;;;;;11.06;39.58;97015.47;5075132;28;20417;-67
2021/03/04 07:22:42;;;;;;;20.00;9.10;;;;;;;11.01;39.92;97013.31;5074632;28;20420;-65
2021/03/04 07:25:10;;;;;;;18.53;9.67;;;;;;;10.96;39.60;97009.53;5067887;28;20424;-67
2021/03/04 07:27:36;;;;;;;25.67;9.77;;;;;;;11.29;39.32;97007.78;5069930;28;20448;-67
2021/03/04 07:30:02;;;;;;;20.80;9.10;;;;;;;11.21;39.53;97003.34;5073165;28;20910;-66
2021/03/04 07:32:27;;;;;;;15.87;9.00;;;;;;;11.36;38.74;97010.59;5072703;28;20242;-67
2021/03/04 07:34:53;;;;;;;11.57;7.53;;;;;;;11.63;37.86;97006.00;5073733;28;20428;-63
2021/03/04 07:37:20;;;;;;;21.17;8.07;;;;;;;12.14;37.14;97003.22;5073050;28;20629;-66
2021/03/04 07:39:47;;;;;;;23.20;8.40;;;;;;;11.52;38.03;97002.75;5072248;28;20699;-65
2021/03/04 07:42:18;;;;;;;24.70;8.97;;;;;;;11.52;38.26;96999.31;5070548;28;20428;-66
2021/03/04 07:44:44;;;;;;;19.83;8.53;;;;;;;12.21;37.03;96990.25;5073712;28;20437;-68
2021/03/04 07:47:10;;;;;;;22.63;8.97;;;;;;;12.53;36.39;96999.00;5073084;28;20437;-65
2021/03/04 07:49:45;;;;;;;21.77;9.10;;;;;;;12.06;36.71;96985.69;5072506;28;20214;-66
2021/03/04 07:52:14;;;;;;;18.73;9.47;;;;;;;12.33;36.46;96991.53;5071940;28;20475;-65
2021/03/04 07:54:42;;;;;;;14.93;9.00;;;;;;;11.74;37.29;96987.31;5072908;28;20424;-65
2021/03/04 07:57:08;;;;;;;18.93;9.50;;;;;;;12.39;36.35;96988.22;5063217;28;20888;-65
2021/03/04 07:59:35;;;;;;;12.20;8.20;;;;;;;12.21;36.25;96979.75;5073678;28;20528;-65
2021/03/04 08:02:03;;;;;;;18.63;9.17;;;;;;;12.02;36.38;96983.56;5073745;28;20420;-65
2021/03/04 08:04:30;;;;;;;13.60;8.40;;;;;;;12.20;36.35;96981.53;5073431;28;20451;-66
2021/03/04 08:06:57;;;;;;;22.73;8.57;;;;;;;12.60;35.63;96977.13;5072463;28;20441;-67
2021/03/04 08:09:33;;;;;;;14.80;7.80;;;;;;;12.42;36.05;96980.00;5072973;28;20435;-67
2021/03/04 08:12:04;;;;;;;15.50;8.17;;;;;;;12.02;36.25;96980.94;5072686;28;20416;-66
2021/03/04 08:14:30;;;;;;;20.00;7.87;;;;;;;12.45;35.61;96978.81;5073177;28;20763;-66
2021/03/04 08:16:56;;;;;;;24.10;10.03;;;;;;;12.61;35.42;96975.31;5072712;28;20463;-65
2021/03/04 08:19:29;;;;;;;17.87;8.67;;;;;;;12.59;35.35;96969.44;5073100;28;20186;-68
2021/03/04 08:22:01;;;;;;;30.13;10.77;;;;;;;12.33;36.00;96969.69;5073168;28;20466;-66
2021/03/04 08:24:27;;;;;;;27.77;10.77;;;;;;;12.52;36.19;96966.66;5064120;28;20431;-67
2021/03/04 08:26:55;;;;;;;17.43;10.23;;;;;;;12.23;36.07;96972.47;5041571;28;20438;-66
2021/03/04 08:29:21;;;;;;;33.77;9.47;;;;;;;12.24;36.63;96966.25;5049531;28;20635;-64
2021/03/04 08:31:50;;;;;;;24.47;8.80;;;;;;;12.67;35.06;96956.25;5051136;28;20417;-65
2021/03/04 08:34:16;;;;;;;20.43;8.40;;;;;;;12.96;35.03;96954.78;5055079;28;20179;-67
2021/03/04 08:36:43;;;;;;;18.87;9.40;;;;;;;12.75;35.35;96964.06;5054149;28;20496;-66
2021/03/04 08:39:09;;;;;;;23.90;8.80;;;;;;;13.25;34.17;96948.00;5043167;28;20211;-67
2021/03/04 08:41:35;;;;;;;21.10;8.50;;;;;;;13.47;34.09;96950.84;5059275;28;20797;-65
2021/03/04 08:44:14;;;;;;;20.40;8.00;;;;;;;13.83;33.93;96944.94;5047218;28;20426;-67
2021/03/04 08:46:47;;;;;;;15.50;8.53;;;;;;;14.34;33.01;96943.44;5038604;28;20187;-66
2021/03/04 08:49:20;;;;;;;26.00;10.27;;;;;;;14.19;33.28;96933.69;5050718;28;20428;-66
2021/03/04 08:51:46;;;;;;;18.93;8.80;;;;;;;13.76;33.36;96939.56;5046277;28;20417;-66
2021/03/04 08:54:28;;;;;;;14.67;8.37;;;;;;;13.86;33.08;96949.81;5046143;28;20421;-66
2021/03/04 08:57:05;;;;;;;31.00;9.17;;;;;;;13.55;33.78;96944.69;5049451;28;20430;-65
2021/03/04 08:59:31;;;;;;;22.00;9.37;;;;;;;13.53;34.56;96939.59;5043803;28;20462;-65
2021/03/04 09:01:59;;;;;;;20.03;9.37;;;;;;;12.95;35.15;96941.78;5045983;28;20422;-64
2021/03/04 09:04:28;;;;;;;14.83;8.70;;;;;;;12.91;35.44;96943.94;5046112;28;20896;-66
2021/03/04 09:06:55;;;;;;;22.30;8.77;;;;;;;12.71;35.63;96933.03;5050861;28;20422;-66
2021/03/04 09:09:28;;;;;;;13.57;8.53;;;;;;;12.86;35.67;96933.13;5052147;28;20937;-66
2021/03/04 09:11:55;;;;;;;19.30;9.43;;;;;;;12.85;35.98;96929.69;5050448;28;20457;-66
2021/03/04 09:14:30;;;;;;;30.37;9.63;;;;;;;13.28;35.31;96934.50;5052004;28;20499;-66
2021/03/04 09:16:56;;;;;;;22.33;10.13;;;;;;;13.18;35.38;96926.03;5050814;28;20433;-66
2021/03/04 09:19:29;;;;;;;17.47;10.37;;;;;;;13.80;34.66;96919.75;5052085;28;20429;-66
2021/03/04 09:21:59;;;;;;;14.53;8.20;;;;;;;14.24;33.92;96914.69;5052324;28;20191;-65
2021/03/04 09:24:26;;;;;;;18.53;9.70;;;;;;;14.41;33.81;96915.31;5051523;28;20490;-67
2021/03/04 09:26:52;;;;;;;17.63;8.10;;;;;;;14.69;33.28;96917.31;5050956;28;20795;-66
2021/03/04 09:29:19;;;;;;;15.97;8.23;;;;;;;14.87;32.82;96909.78;5018526;28;20422;-67
2021/03/04 09:31:49;;;;;;;23.33;9.30;;;;;;;14.92;32.91;96911.06;5050258;28;20436;-66
2021/03/04 09:34:14;;;;;;;17.93;9.67;;;;;;;14.16;33.97;96901.63;5053510;28;20418;-67
2021/03/04 09:36:40;;;;;;;17.90;8.10;;;;;;;14.24;34.02;96902.31;5084778;28;20788;-66
2021/03/04 09:39:05;;;;;;;14.00;8.27;;;;;;;14.60;33.96;96906.00;5075545;28;20187;-66
2021/03/04 09:41:31;;;;;;;19.33;8.80;;;;;;;14.49;34.38;96895.94;5061737;28;20274;-66
2021/03/04 09:44:01;;;;;;;20.20;8.40;;;;;;;14.90;33.65;96893.59;5051268;28;20282;-67
2021/03/04 09:46:35;;;;;;;13.27;7.93;;;;;;;15.03;32.93;96892.09;5049887;28;20643;-66
2021/03/04 09:49:17;;;;;;;17.80;7.97;;;;;;;15.44;32.67;96885.31;5052481;28;20485;-65
2021/03/04 09:51:45;;;;;;;14.93;8.73;;;;;;;15.31;32.86;96878.94;5053522;28;20516;-66
2021/03/04 09:54:22;;;;;;;20.93;8.67;;;;;;;15.43;33.04;96876.59;5044650;28;20900;-67
2021/03/04 09:57:05;;;;;;;22.13;9.43;;;;;;;15.60;32.79;96871.06;5051078;28;21217;-66
2021/03/04 09:59:31;;;;;;;15.43;8.70;;;;;;;15.80;31.94;96872.00;5052006;28;20433;-67
2021/03/04 10:01:58;;;;;;;28.77;12.17;;;;;;;15.71;32.49;96862.59;5051929;28;20978;-67
2021/03/04 10:04:26;;;;;;;23.13;8.67;;;;;;;15.27;33.02;96868.94;5053549;28;20199;-66
2021/03/04 10:06:52;;;;;;;22.70;7.90;;;;;;;15.64;32.71;96859.06;5054590;28;21039;-66
2021/03/04 10:09:25;;;;;;;29.23;10.37;;;;;;;15.54;32.91;96856.78;5053890;28;20568;-65
2021/03/04 10:11:51;;;;;;;15.30;8.10;;;;;;;15.69;32.56;96861.97;5048763;28;20183;-66
2021/03/04 10:14:16;;;;;;;14.03;7.90;;;;;;;15.46;32.97;96855.09;5045787;28;20558;-67
2021/03/04 10:16:42;;;;;;;15.57;8.40;;;;;;;15.67;32.83;96853.41;5049348;28;20213;-67
2021/03/04 10:19:08;;;;;;;22.40;9.30;;;;;;;15.56;33.27;96856.59;5055595;28;20187;-66
2021/03/04 10:21:35;;;;;;;19.53;7.77;;;;;;;16.10;32.46;96850.66;5056962;28;20183;-66
2021/03/04 10:24:01;;;;;;;17.53;8.10;;;;;;;16.41;31.89;96854.63;5055603;28;20448;-65
2021/03/04 10:26:27;;;;;;;25.63;8.40;;;;;;;15.35;33.70;96853.00;5050936;28;20425;-65
2021/03/04 10:28:53;;;;;;;22.33;9.27;;;;;;;15.94;33.09;96850.97;5049619;28;20975;-66
2021/03/04 10:31:18;;;;;;;19.77;9.53;;;;;;;15.52;33.71;96854.31;5053083;28;20472;-65
2021/03/04 10:33:44;;;;;;;13.77;8.03;;;;;;;16.11;32.92;96857.56;5053981;28;20210;-65
2021/03/04 10:36:10;;;;;;;20.17;10.20;;;;;;;16.32;32.65;96852.38;5049420;28;20186;-66
2021/03/04 10:38:36;;;;;;;17.50;9.00;;;;;;;16.18;33.01;96846.19;5050542;28;20276;-67
2021/03/04 10:41:02;;;;;;;17.50;8.73;;;;;;;16.86;32.26;96843.53;5053769;28;21159;-66
2021/03/04 10:43:27;;;;;;;29.50;8.70;;;;;;;16.85;32.04;96833.19;5057990;28;20202;-67
2021/03/04 10:45:53;;;;;;;16.13;9.17;;;;;;;17.02;32.18;96842.38;5049643;28;20187;-66
2021/03/04 10:48:19;;;;;;;19.67;9.47;;;;;;;17.51;31.27;96839.53;5049172;28;20700;-67
2021/03/04 10:50:44;;;;;;;20.83;9.40;;;;;;;17.40;31.22;96843.63;5048698;28;20199;-66
2021/03/04 10:53:10;;;;;;;17.90;9.43;;;;;;;16.55;32.43;96836.16;5050039;28;20211;-67
2021/03/04 10:55:35;;;;;;;26.87;9.97;;;;;;;16.48;32.66;96833.50;5050094;28;20186;-67
2021/03/04 10:58:01;;;;;;;29.43;9.60;;;;;;;16.66;31.83;96838.22;5051243;28;20199;-66
2021/03/04 11:00:27;;;;;;;23.40;9.53;;;;;;;16.70;31.73;96831.50;5055162;28;20837;-65
2021/03/04 11:02:52;;;;;;;21.50;10.13;;;;;;;16.97;31.45;96831.59;5060574;28;20192;-67
2021/03/04 11:05:18;;;;;;;23.27;9.07;;;;;;;16.75;32.29;96825.63;5049950;28;20179;-64
2021/03/04 11:07:45;;;;;;;23.53;8.60;;;;;;;16.36;32.99;96835.91;5049304;28;20551;-66
2021/03/04 11:10:11;;;;;;;13.87;8.20;;;;;;;16.59;32.71;96826.81;5049234;28;20553;-66
2021/03/04 11:12:37;;;;;;;22.13;10.17;;;;;;;17.47;31.39;96814.47;5048102;28;20453;-67
2021/03/04 11:15:05;;;;;;;26.00;9.67;;;;;;;18.05;30.46;96812.94;5050097;28;20484;-65
2021/03/04 11:17:30;;;;;;;27.33;9.80;;;;;;;18.50;29.72;96812.94;5049207;28;20203;-66
2021/03/04 11:19:56;;;;;;;31.03;9.77;;;;;;;17.84;31.00;96812.16;5049856;28;20461;-66
2021/03/04 11:22:21;;;;;;;28.00;10.23;;;;;;;17.38;31.94;96802.47;5050199;28;20228;-66
2021/03/04 11:24:48;;;;;;;23.63;9.37;;;;;;;18.22;30.51;96800.00;5062213;28;20191;-66